createdAt,value
2018-03-02T00:01:15.477Z,101025.93
2018-03-02T00:03:43.011Z,101027.81
2018-03-02T00:06:10.528Z,101012.61
2018-03-02T00:08:38.045Z,101014.98
2018-03-02T00:11:05.583Z,101016.30
2018-03-02T00:13:33.109Z,101024.97
2018-03-02T00:16:00.629Z,101017.33
2018-03-02T00:18:28.230Z,101016.86
2018-03-02T00:20:55.754Z,101027.22
2018-03-02T00:23:23.293Z,101016.25
2018-03-02T00:25:50.829Z,101016.17
2018-03-02T00:28:18.366Z,101014.08
2018-03-02T00:30:45.889Z,101018.91
2018-03-02T00:33:13.424Z,100998.89
2018-03-02T00:35:40.952Z,101003.28
2018-03-02T00:38:08.469Z,100989.03
2018-03-02T00:40:35.998Z,100991.86
2018-03-02T00:43:03.517Z,100985.91
2018-03-02T00:45:31.070Z,100976.67
2018-03-02T00:47:58.585Z,100977.33
2018-03-02T00:50:26.114Z,100970.77
2018-03-02T00:52:53.634Z,100973.38
2018-03-02T00:55:21.157Z,100972.37
2018-03-02T00:57:48.678Z,100971.13
2018-03-02T01:00:16.212Z,100965.14
2018-03-02T01:02:44.104Z,100974.39
2018-03-02T01:05:11.629Z,100969.06
2018-03-02T01:07:39.152Z,100962.41
2018-03-02T01:10:06.672Z,100955.80
2018-03-02T01:12:34.194Z,100952.53
2018-03-02T01:15:01.713Z,100948.20
2018-03-02T01:17:29.236Z,100945.86
2018-03-02T01:19:56.754Z,100933.39
2018-03-02T01:22:24.277Z,100930.31
2018-03-02T01:24:51.812Z,100932.56
2018-03-02T01:27:19.325Z,100924.01
2018-03-02T01:29:46.840Z,100921.14
2018-03-02T01:32:14.356Z,100918.69
2018-03-02T01:34:41.883Z,100919.59
2018-03-02T01:37:09.402Z,100909.73
2018-03-02T01:39:36.925Z,100904.66
2018-03-02T01:42:04.445Z,100902.93
2018-03-02T01:44:31.965Z,100894.17
2018-03-02T01:46:59.484Z,100890.25
2018-03-02T01:49:26.999Z,100886.14
2018-03-02T01:51:54.534Z,100898.97
2018-03-02T01:54:22.060Z,100889.27
2018-03-02T01:56:49.588Z,100879.52
2018-03-02T01:59:17.110Z,100876.61
2018-03-02T02:01:44.633Z,100876.52
2018-03-02T02:04:12.175Z,100875.03
2018-03-02T02:06:39.698Z,100859.84
2018-03-02T02:09:07.221Z,100859.77
2018-03-02T02:11:34.742Z,100850.02
2018-03-02T02:14:02.278Z,100838.09
2018-03-02T02:16:29.797Z,100837.70
2018-03-02T02:18:57.327Z,100837.45
2018-03-02T02:21:24.858Z,100838.45
2018-03-02T02:23:52.373Z,100830.26
2018-03-02T02:26:19.893Z,100826.08
2018-03-02T02:28:47.420Z,100825.84
2018-03-02T02:31:14.956Z,100821.73
2018-03-02T02:33:42.476Z,100825.77
2018-03-02T02:36:10.011Z,100824.88
2018-03-02T02:38:37.529Z,100820.78
2018-03-02T02:41:05.047Z,100825.76
2018-03-02T02:43:32.568Z,100831.86
2018-03-02T02:46:00.095Z,100822.35
2018-03-02T02:48:27.621Z,100819.28
2018-03-02T02:50:55.148Z,100827.42
2018-03-02T02:53:22.665Z,100818.75
2018-03-02T02:55:50.183Z,100821.09
2018-03-02T02:58:17.706Z,100826.73
2018-03-02T03:00:45.225Z,100816.70
2018-03-02T03:03:12.777Z,100819.87
2018-03-02T03:05:40.316Z,100813.78
2018-03-02T03:08:07.868Z,100823.98
2018-03-02T03:10:35.401Z,100812.81
2018-03-02T03:13:02.935Z,100811.86
2018-03-02T03:15:30.467Z,100811.25
2018-03-02T03:17:58.006Z,100811.00
2018-03-02T03:20:25.527Z,100815.48
2018-03-02T03:22:53.052Z,100815.25
2018-03-02T03:25:20.587Z,100811.80
2018-03-02T03:27:48.115Z,100802.10
2018-03-02T03:30:15.641Z,100797.00
2018-03-02T03:32:43.160Z,100792.98
2018-03-02T03:35:10.681Z,100797.50
2018-03-02T03:37:38.211Z,100791.66
2018-03-02T03:40:05.753Z,100795.88
2018-03-02T03:42:33.279Z,100792.92
2018-03-02T03:45:00.800Z,100788.92
2018-03-02T03:47:28.324Z,100787.75
2018-03-02T03:49:55.851Z,100793.34
2018-03-02T03:52:23.385Z,100786.01
2018-03-02T03:54:50.910Z,100777.52
2018-03-02T03:57:18.448Z,100775.85
2018-03-02T03:59:45.975Z,100782.14
2018-03-02T04:02:13.501Z,100771.16
2018-03-02T04:04:41.029Z,100777.44
2018-03-02T04:07:08.563Z,100763.61
2018-03-02T04:09:36.100Z,100763.83
2018-03-02T04:12:03.659Z,100768.38
2018-03-02T04:14:31.188Z,100767.52
2018-03-02T04:16:58.704Z,100764.52
2018-03-02T04:19:26.225Z,100762.23
2018-03-02T04:21:53.751Z,100766.75
2018-03-02T04:24:21.275Z,100759.83
2018-03-02T04:26:48.797Z,100758.92
2018-03-02T04:29:16.332Z,100754.16
2018-03-02T04:31:43.860Z,100751.95
2018-03-02T04:34:11.380Z,100738.53
2018-03-02T04:36:38.904Z,100741.19
2018-03-02T04:39:06.436Z,100745.26
2018-03-02T04:41:33.963Z,100745.45
2018-03-02T04:44:01.490Z,100741.77
2018-03-02T04:46:29.013Z,100732.03
2018-03-02T04:48:56.537Z,100734.48
2018-03-02T04:51:24.071Z,100735.29
2018-03-02T04:53:51.627Z,100726.25
2018-03-02T04:56:19.145Z,100723.16
2018-03-02T04:58:46.685Z,100729.01
2018-03-02T05:01:14.211Z,100718.23
2018-03-02T05:03:41.787Z,100721.59
2018-03-02T05:06:09.289Z,100725.81
2018-03-02T05:08:36.813Z,100721.08
2018-03-02T05:11:04.345Z,100724.95
2018-03-02T05:13:31.866Z,100713.50
2018-03-02T05:15:59.392Z,100720.52
2018-03-02T05:18:26.921Z,100717.61
2018-03-02T05:20:54.459Z,100711.65
2018-03-02T05:23:21.987Z,100711.20
2018-03-02T05:25:49.520Z,100716.77
2018-03-02T05:28:17.056Z,100707.87
2018-03-02T05:30:44.597Z,100714.16
2018-03-02T05:33:12.117Z,100701.16
2018-03-02T05:35:39.638Z,100703.06
2018-03-02T05:38:07.170Z,100706.03
2018-03-02T05:40:34.692Z,100699.53
2018-03-02T05:43:02.219Z,100694.95
2018-03-02T05:45:29.738Z,100702.45
2018-03-02T05:47:57.257Z,100697.08
2018-03-02T05:50:24.793Z,100695.81
2018-03-02T05:52:52.320Z,100693.20
2018-03-02T05:55:19.840Z,100700.64
2018-03-02T05:57:47.401Z,100695.62
2018-03-02T06:00:14.925Z,100698.69
2018-03-02T06:02:42.459Z,100697.91
2018-03-02T06:05:09.980Z,100692.05
2018-03-02T06:07:37.504Z,100700.03
2018-03-02T06:10:05.034Z,100696.06
2018-03-02T06:12:32.571Z,100695.53
2018-03-02T06:15:00.094Z,100707.58
2018-03-02T06:17:27.627Z,100698.64
2018-03-02T06:19:55.171Z,100696.23
2018-03-02T06:22:22.698Z,100697.78
2018-03-02T06:24:50.217Z,100700.09
2018-03-02T06:27:17.737Z,100702.61
2018-03-02T06:29:45.273Z,100698.31
2018-03-02T06:32:12.803Z,100694.19
2018-03-02T06:34:40.329Z,100693.33
2018-03-02T06:37:07.858Z,100686.12
2018-03-02T06:39:35.397Z,100679.62
2018-03-02T06:42:02.946Z,100679.75
2018-03-02T06:44:30.470Z,100681.91
2018-03-02T06:46:57.997Z,100676.92
2018-03-02T06:49:25.523Z,100671.23
2018-03-02T06:51:53.070Z,100665.06
2018-03-02T06:54:20.603Z,100656.81
2018-03-02T06:56:48.132Z,100663.53
2018-03-02T06:59:15.654Z,100663.33
2018-03-02T07:01:43.208Z,100661.56
2018-03-02T07:04:10.743Z,100649.81
2018-03-02T07:06:38.264Z,100656.59
2018-03-02T07:09:05.789Z,100643.91
2018-03-02T07:11:33.304Z,100648.97
2018-03-02T07:14:00.830Z,100653.97
2018-03-02T07:16:28.357Z,100661.27
2018-03-02T07:18:56.688Z,100648.92
2018-03-02T07:21:24.210Z,100644.02
2018-03-02T07:23:51.737Z,100634.86
2018-03-02T07:26:19.274Z,100629.76
2018-03-02T07:28:46.792Z,100628.70
2018-03-02T07:31:14.336Z,100625.84
2018-03-02T07:33:41.852Z,100627.05
2018-03-02T07:36:09.370Z,100618.77
2018-03-02T07:38:36.907Z,100617.80
2018-03-02T07:41:04.434Z,100606.84
2018-03-02T07:43:31.966Z,100608.32
2018-03-02T07:46:00.070Z,100608.00
2018-03-02T07:48:27.591Z,100603.88
2018-03-02T07:50:55.127Z,100596.86
2018-03-02T07:53:22.651Z,100588.36
2018-03-02T07:55:50.172Z,100595.14
2018-03-02T07:58:17.696Z,100590.17
2018-03-02T08:00:45.216Z,100583.42
2018-03-02T08:03:12.740Z,100590.98
2018-03-02T08:05:40.262Z,100592.15
2018-03-02T08:08:07.783Z,100578.80
2018-03-02T08:10:35.366Z,100565.66
2018-03-02T08:13:02.889Z,100565.27
2018-03-02T08:15:30.404Z,100580.02
2018-03-02T08:17:57.916Z,100564.62
2018-03-02T08:20:25.461Z,100585.16
2018-03-02T08:22:53.000Z,100558.24
2018-03-02T08:25:20.571Z,100557.62
2018-03-02T08:27:48.061Z,100553.16
2018-03-02T08:30:15.576Z,100549.72
2018-03-02T08:32:43.125Z,100543.69
2018-03-02T08:35:10.663Z,100534.20
2018-03-02T08:37:38.179Z,100532.08
2018-03-02T08:40:05.709Z,100534.63
2018-03-02T08:42:33.229Z,100526.70
2018-03-02T08:45:00.763Z,100536.73
2018-03-02T08:47:28.279Z,100523.27
2018-03-02T08:49:55.817Z,100510.44
2018-03-02T08:52:23.345Z,100503.53
2018-03-02T08:54:50.866Z,100509.84
2018-03-02T08:57:18.380Z,100504.37
2018-03-02T08:59:45.901Z,100503.12
2018-03-02T09:02:13.415Z,100489.09
2018-03-02T09:04:40.957Z,100474.52
2018-03-02T09:07:08.480Z,100497.34
2018-03-02T09:09:36.018Z,100490.81
2018-03-02T09:12:03.552Z,100489.31
2018-03-02T09:14:31.086Z,100482.52
2018-03-02T09:16:58.626Z,100468.89
2018-03-02T09:19:26.143Z,100478.10
2018-03-02T09:21:53.661Z,100468.89
2018-03-02T09:24:21.177Z,100471.86
2018-03-02T09:26:48.690Z,100447.85
2018-03-02T09:29:16.200Z,100434.85
2018-03-02T09:31:43.734Z,100464.06
2018-03-02T09:34:11.259Z,100444.06
2018-03-02T09:36:38.775Z,100432.20
2018-03-02T09:39:06.713Z,100438.55
2018-03-02T09:41:34.856Z,100438.12
2018-03-02T09:44:02.394Z,100420.20
2018-03-02T09:46:30.606Z,100417.47
2018-03-02T09:48:58.185Z,100411.38
2018-03-02T09:51:25.713Z,100408.88
2018-03-02T09:53:53.243Z,100408.17
2018-03-02T09:56:20.791Z,100401.48
2018-03-02T09:58:48.318Z,100388.25
2018-03-02T10:01:16.181Z,100389.48
2018-03-02T10:03:44.639Z,100397.81
2018-03-02T10:06:12.153Z,100391.21
2018-03-02T10:08:39.669Z,100402.43
2018-03-02T10:11:07.187Z,100404.81
2018-03-02T10:13:34.711Z,100382.31
2018-03-02T10:16:02.240Z,100382.55
2018-03-02T10:18:29.761Z,100401.62
2018-03-02T10:20:57.283Z,100383.85
2018-03-02T10:23:24.832Z,100368.08
2018-03-02T10:25:52.352Z,100388.67
2018-03-02T10:28:19.894Z,100373.32
2018-03-02T10:30:47.418Z,100367.20
2018-03-02T10:33:14.961Z,100364.13
2018-03-02T10:35:42.489Z,100375.60
2018-03-02T10:38:10.024Z,100361.34
2018-03-02T10:40:37.554Z,100352.64
2018-03-02T10:43:05.079Z,100353.44
2018-03-02T10:45:32.596Z,100344.97
2018-03-02T10:48:00.119Z,100348.70
2018-03-02T10:50:28.270Z,100343.22
2018-03-02T10:52:55.794Z,100336.80
2018-03-02T10:55:23.328Z,100349.44
2018-03-02T10:57:50.853Z,100343.59
2018-03-02T11:00:23.981Z,100337.97
2018-03-02T11:02:58.397Z,100345.45
2018-03-02T11:05:31.636Z,100334.45
2018-03-02T11:07:59.230Z,100325.05
2018-03-02T11:10:27.687Z,100313.37
2018-03-02T11:12:55.247Z,100314.77
2018-03-02T11:15:22.786Z,100317.70
2018-03-02T11:17:50.332Z,100312.95
2018-03-02T11:20:17.875Z,100323.48
2018-03-02T11:22:45.400Z,100307.99
2018-03-02T11:25:12.948Z,100316.39
2018-03-02T11:27:40.474Z,100313.05
2018-03-02T11:30:08.008Z,100293.70
2018-03-02T11:32:35.526Z,100293.23
2018-03-02T11:35:03.053Z,100285.39
2018-03-02T11:37:30.576Z,100290.39
2018-03-02T11:39:58.114Z,100285.13
2018-03-02T11:42:25.664Z,100272.72
2018-03-02T11:44:53.190Z,100276.47
2018-03-02T11:47:20.712Z,100270.05
2018-03-02T11:49:48.233Z,100269.58
2018-03-02T11:52:15.754Z,100256.95
2018-03-02T11:54:43.270Z,100263.99
2018-03-02T11:57:10.801Z,100263.06
2018-03-02T11:59:38.330Z,100253.13
2018-03-02T12:02:05.845Z,100248.33
2018-03-02T12:04:33.376Z,100246.36
2018-03-02T12:07:00.889Z,100239.61
2018-03-02T12:09:28.410Z,100238.34
2018-03-02T12:11:55.933Z,100242.12
2018-03-02T12:14:23.459Z,100232.69
2018-03-02T12:16:51.026Z,100232.89
2018-03-02T12:19:19.349Z,100231.50
2018-03-02T12:21:47.759Z,100251.81
2018-03-02T12:24:15.291Z,100238.23
2018-03-02T12:26:42.825Z,100232.89
2018-03-02T12:29:10.347Z,100237.25
2018-03-02T12:31:37.864Z,100229.12
2018-03-02T12:34:05.383Z,100231.15
2018-03-02T12:36:32.979Z,100237.37
2018-03-02T12:39:00.479Z,100232.72
2018-03-02T12:41:28.951Z,100235.94
2018-03-02T12:43:56.471Z,100230.92
2018-03-02T12:46:24.005Z,100241.08
2018-03-02T12:48:51.528Z,100229.83
2018-03-02T12:51:19.156Z,100220.72
2018-03-02T12:53:46.693Z,100221.57
2018-03-02T12:56:14.221Z,100218.55
2018-03-02T12:58:41.745Z,100205.37
2018-03-02T13:01:09.262Z,100211.20
2018-03-02T13:03:37.466Z,100203.66
2018-03-02T13:06:04.988Z,100201.78
2018-03-02T13:08:32.549Z,100201.86
2018-03-02T13:11:00.064Z,100210.89
2018-03-02T13:13:27.933Z,100202.34
2018-03-02T13:15:55.468Z,100210.59
2018-03-02T13:18:47.816Z,100193.25
2018-03-02T13:21:15.335Z,100181.41
2018-03-02T13:23:44.388Z,100170.53
2018-03-02T13:26:23.761Z,100174.83
2018-03-02T13:28:52.232Z,100179.66
2018-03-02T13:31:20.208Z,100176.15
2018-03-02T13:33:59.573Z,100177.91
2018-03-02T13:36:27.128Z,100184.46
2018-03-02T13:38:54.722Z,100186.61
2018-03-02T13:41:34.021Z,100185.73
2018-03-02T13:44:01.653Z,100177.06
2018-03-02T13:46:30.160Z,100170.04
2018-03-02T13:49:10.232Z,100177.53
2018-03-02T13:51:37.768Z,100180.09
2018-03-02T13:54:06.021Z,100174.42
2018-03-02T13:56:45.349Z,100187.55
2018-03-02T13:59:12.900Z,100189.20
2018-03-02T14:01:40.430Z,100189.19
2018-03-02T14:04:19.747Z,100182.20
2018-03-02T14:06:47.276Z,100177.38
2018-03-02T14:09:14.798Z,100172.58
2018-03-02T14:11:42.332Z,100172.23
2018-03-02T14:14:09.861Z,100169.59
2018-03-02T14:16:37.379Z,100179.62
2018-03-02T14:19:04.914Z,100165.19
2018-03-02T14:21:32.662Z,100170.35
2018-03-02T14:24:00.527Z,100176.11
2018-03-02T14:26:28.909Z,100165.20
2018-03-02T14:28:56.439Z,100157.33
2018-03-02T14:31:23.964Z,100165.21
2018-03-02T14:33:51.668Z,100155.62
2018-03-02T14:36:19.189Z,100151.25
2018-03-02T14:38:46.716Z,100153.91
2018-03-02T14:41:15.134Z,100159.45
2018-03-02T14:43:42.670Z,100143.78
2018-03-02T14:46:10.203Z,100153.88
2018-03-02T14:48:37.726Z,100142.84
2018-03-02T14:51:05.266Z,100144.12
2018-03-02T14:53:32.810Z,100137.61
2018-03-02T14:56:00.359Z,100134.14
2018-03-02T14:58:27.885Z,100135.04
2018-03-02T15:00:55.413Z,100131.61
2018-03-02T15:03:22.937Z,100137.23
2018-03-02T15:05:50.454Z,100141.16
2018-03-02T15:08:17.975Z,100138.08
2018-03-02T15:10:45.526Z,100146.83
2018-03-02T15:13:13.060Z,100142.91
2018-03-02T15:15:40.586Z,100147.67
2018-03-02T15:18:08.124Z,100147.69
2018-03-02T15:20:35.684Z,100152.03
2018-03-02T15:23:03.233Z,100154.69
2018-03-02T15:25:30.818Z,100153.80
2018-03-02T15:27:58.568Z,100154.28
2018-03-02T15:30:26.125Z,100150.66
2018-03-02T15:32:54.242Z,100150.30
2018-03-02T15:35:21.769Z,100159.08
2018-03-02T15:37:49.311Z,100152.37
2018-03-02T15:40:16.846Z,100156.78
2018-03-02T15:42:44.393Z,100159.84
2018-03-02T15:45:11.918Z,100160.69
2018-03-02T15:47:39.450Z,100161.58
2018-03-02T15:50:06.974Z,100164.62
2018-03-02T15:52:34.499Z,100165.97
2018-03-02T15:55:02.021Z,100160.64
2018-03-02T15:57:30.347Z,100158.83
2018-03-02T15:59:57.874Z,100156.28
2018-03-02T16:02:25.416Z,100156.72
2018-03-02T16:04:52.938Z,100162.34
2018-03-02T16:07:20.461Z,100159.30
2018-03-02T16:09:48.002Z,100169.80
2018-03-02T16:12:15.524Z,100178.97
2018-03-02T16:14:43.064Z,100182.42
2018-03-02T16:17:10.833Z,100196.36
2018-03-02T16:19:38.368Z,100195.97
2018-03-02T16:22:05.947Z,100186.41
2018-03-02T16:24:33.468Z,100186.70
2018-03-02T16:27:00.987Z,100184.98
2018-03-02T16:29:28.514Z,100190.66
2018-03-02T16:31:56.041Z,100185.39
2018-03-02T16:34:23.567Z,100191.88
2018-03-02T16:36:51.088Z,100185.83
2018-03-02T16:39:18.614Z,100187.59
2018-03-02T16:41:46.136Z,100191.97
2018-03-02T16:44:13.665Z,100189.37
2018-03-02T16:46:41.186Z,100194.97
2018-03-02T16:49:08.726Z,100198.88
2018-03-02T16:51:36.245Z,100193.63
2018-03-02T16:54:05.780Z,100200.50
2018-03-02T16:56:33.324Z,100208.01
2018-03-02T16:59:00.845Z,100214.55
2018-03-02T17:01:28.378Z,100219.30
2018-03-02T17:03:55.912Z,100219.23
2018-03-02T17:06:23.438Z,100227.52
2018-03-02T17:08:50.979Z,100222.73
2018-03-02T17:11:18.500Z,100230.58
2018-03-02T17:13:46.027Z,100230.11
2018-03-02T17:16:13.560Z,100227.46
2018-03-02T17:18:41.092Z,100238.36
2018-03-02T17:21:08.636Z,100241.42
2018-03-02T17:23:37.141Z,100240.58
2018-03-02T17:26:05.391Z,100247.92
2018-03-02T17:28:32.990Z,100251.81
2018-03-02T17:31:00.485Z,100252.25
2018-03-02T17:33:28.015Z,100251.45
2018-03-02T17:35:55.541Z,100254.91
2018-03-02T17:38:23.088Z,100255.75
2018-03-02T17:40:50.628Z,100258.40
2018-03-02T17:43:18.208Z,100260.87
2018-03-02T17:45:45.738Z,100262.72
2018-03-02T17:48:13.271Z,100263.16
2018-03-02T17:50:40.828Z,100269.70
2018-03-02T17:53:08.361Z,100271.84
2018-03-02T17:55:35.880Z,100275.22
2018-03-02T17:58:03.403Z,100270.89
2018-03-02T18:00:30.931Z,100275.17
2018-03-02T18:02:58.441Z,100270.86
2018-03-02T18:05:25.977Z,100275.17
2018-03-02T18:07:53.508Z,100282.55
2018-03-02T18:10:21.071Z,100281.71
2018-03-02T18:12:48.603Z,100283.81
2018-03-02T18:15:16.123Z,100285.12
2018-03-02T18:17:44.637Z,100292.05
2018-03-02T18:20:12.162Z,100290.78
2018-03-02T18:22:39.683Z,100290.70
2018-03-02T18:25:07.201Z,100294.19
2018-03-02T18:27:34.734Z,100295.45
2018-03-02T18:30:02.271Z,100293.18
2018-03-02T18:32:29.790Z,100305.81
2018-03-02T18:34:57.309Z,100310.12
2018-03-02T18:37:24.825Z,100311.97
2018-03-02T18:39:52.336Z,100305.77
2018-03-02T18:42:19.859Z,100313.18
2018-03-02T18:44:47.373Z,100306.20
2018-03-02T18:47:14.897Z,100318.94
2018-03-02T18:49:42.417Z,100340.04
2018-03-02T18:52:09.947Z,100327.56
2018-03-02T18:54:37.465Z,100335.64
2018-03-02T18:57:05.929Z,100324.75
2018-03-02T18:59:33.456Z,100330.03
2018-03-02T19:02:01.106Z,100329.93
2018-03-02T19:04:28.638Z,100332.00
2018-03-02T19:06:57.213Z,100335.63
2018-03-02T19:09:24.740Z,100349.30
2018-03-02T19:11:52.307Z,100339.78
2018-03-02T19:14:19.833Z,100337.23
2018-03-02T19:16:47.365Z,100345.70
2018-03-02T19:19:14.884Z,100346.69
2018-03-02T20:25:34.434Z,100389.66
2018-03-02T20:28:01.966Z,100386.33
2018-03-02T20:30:30.988Z,100388.80
2018-03-02T20:32:58.509Z,100398.06
2018-03-02T20:35:26.029Z,100397.35
2018-03-02T20:37:53.553Z,100398.66
2018-03-02T20:40:21.078Z,100396.40
2018-03-02T20:42:49.480Z,100390.26
2018-03-02T20:45:17.005Z,100392.10
2018-03-02T20:47:44.530Z,100394.31
2018-03-02T20:50:12.851Z,100394.52
2018-03-02T20:52:40.376Z,100393.57
2018-03-02T20:55:07.894Z,100388.52
2018-03-02T20:57:35.413Z,100376.97
2018-03-02T21:00:02.955Z,100375.16
2018-03-02T21:02:30.520Z,100378.27
2018-03-02T21:04:58.046Z,100381.59
2018-03-02T21:07:26.168Z,100380.02
2018-03-02T21:09:54.591Z,100374.72
2018-03-02T21:12:22.219Z,100388.23
2018-03-02T21:14:49.753Z,100385.55
2018-03-02T21:17:17.278Z,100381.75
2018-03-02T21:19:44.815Z,100388.78
2018-03-02T21:22:12.341Z,100398.30
2018-03-02T21:24:39.883Z,100391.44
2018-03-02T21:27:07.404Z,100400.94
2018-03-02T21:29:34.936Z,100398.05
2018-03-02T21:32:02.455Z,100400.83
2018-03-02T21:34:29.986Z,100404.53
2018-03-02T21:36:57.883Z,100402.48
2018-03-02T21:39:25.404Z,100402.16
2018-03-02T21:41:53.127Z,100400.70
2018-03-02T21:44:20.658Z,100400.52
2018-03-02T21:46:48.176Z,100403.09
2018-03-02T21:49:15.700Z,100394.92
2018-03-02T21:51:43.234Z,100392.84
2018-03-02T21:54:11.593Z,100394.09
2018-03-02T21:56:39.177Z,100384.53
2018-03-02T21:59:06.711Z,100387.05
2018-03-02T22:01:34.236Z,100383.37
2018-03-02T22:04:02.229Z,100378.28
2018-03-02T22:06:29.809Z,100369.67
2018-03-02T22:08:57.333Z,100378.17
2018-03-02T22:11:25.625Z,100376.63
2018-03-02T22:13:53.158Z,100368.70
2018-03-02T22:16:20.677Z,100365.09
2018-03-02T22:18:49.200Z,100375.06
2018-03-02T22:21:17.070Z,100378.00
2018-03-02T22:23:44.686Z,100374.11
2018-03-02T22:26:12.210Z,100372.79
2018-03-02T22:28:39.758Z,100373.77
2018-03-02T22:31:07.281Z,100370.47
2018-03-02T22:33:34.801Z,100369.30
2018-03-02T22:36:02.333Z,100374.80
2018-03-02T22:38:29.881Z,100369.76
2018-03-02T22:40:57.405Z,100368.80
2018-03-02T22:43:25.660Z,100365.52
2018-03-02T22:45:53.207Z,100375.34
2018-03-02T22:48:20.729Z,100369.69
2018-03-02T22:50:48.271Z,100359.58
2018-03-02T22:53:16.255Z,100363.48
2018-03-02T22:55:43.798Z,100361.78
2018-03-02T22:58:11.320Z,100364.21
2018-03-02T23:00:38.857Z,100363.68
2018-03-02T23:03:06.368Z,100360.19
2018-03-02T23:05:33.896Z,100360.38
2018-03-02T23:08:01.429Z,100361.47
2018-03-02T23:10:28.993Z,100369.95
2018-03-02T23:12:56.537Z,100364.67
2018-03-02T23:15:24.081Z,100369.70
2018-03-02T23:17:52.609Z,100371.36
2018-03-02T23:20:20.150Z,100363.55
2018-03-02T23:22:47.678Z,100370.59
2018-03-02T23:25:15.201Z,100360.81
2018-03-02T23:27:42.717Z,100364.46
2018-03-02T23:30:10.244Z,100358.83
2018-03-02T23:32:37.765Z,100364.29
2018-03-02T23:35:05.503Z,100369.05
2018-03-02T23:37:33.027Z,100371.31
2018-03-02T23:40:00.545Z,100363.89
2018-03-02T23:42:28.664Z,100370.53
2018-03-02T23:44:56.215Z,100369.87
2018-03-02T23:47:23.750Z,100370.88
2018-03-02T23:49:51.277Z,100368.19
2018-03-02T23:52:18.878Z,100371.19
2018-03-02T23:54:46.429Z,100376.89
2018-03-02T23:57:13.955Z,100376.17
2018-03-02T23:59:41.549Z,100376.21
